Аэропорт: Бегишево. Набережные Челны, Нижнекамск

ICAO: UWKE

METAR:
2020-08-09 23:30:00
UWKE 092330Z 35005MPS CAVOK 12/10 Q1004 R03/090070 NOSIG RMK QFE736/0982
METAR:
2020-08-09 19:45:00
TAF UWKE 091945Z 0921/1021 35006G13MPS 9999 BKN020 TEMPO 0921/1006 4000 BR BKN011 BECMG 1006/1007 34007G14MPS